• Join FlightAware (Why Join?)
  • Login
  • US Flag 
04:55AM EST


 

Airport Tracker/Info


-or-


 

Live Flight TrackerFlight Track Log ✈ EJA922 ✈ 21-Aug-2013 ✈ KVNY - 3U3

Flight Track Log - Related Links

Times and Time Zones

All times are in EDT time to prevent confusion due to time zone crossing. See the EJA922 flight status page for this flight to view local times or setup timezone preferences in your user account.

Time Position Orientation Groundspeed Altitude Reporting Facility
EDT Latitude Longitude Course Direction KTS MPH feet Rate Location/Type
04:55PM 34.1656 -118.4953 347° North 185 213 2,500  Level Los Angeles Center
04:56PM 34.1447 -118.5531 246° West 211 243 4,900 2,520 Climbing Los Angeles Center
04:57PM 34.1797 -118.6253 300° West 243 280 7,800 2,280 Climbing Los Angeles Center
04:58PM 34.2558 -118.6206 North 271 312 9,700 2,040 Climbing Los Angeles Center
04:59PM 34.3417 -118.6356 352° North 309 356 12,100 2,100 Climbing Los Angeles Center
05:00PM 34.4286 -118.6744 340° North 336 387 14,100 1,740 Climbing Los Angeles Center
05:01PM 35.3686 -119.0520 347° North  Level FlightAware Approximate
05:02PM 34.5250 -118.7233 337° Northwest 376 433 15,800  Level Los Angeles Center
05:03PM 34.6272 -118.7739 338° Northwest 396 456 17,800 2,100 Climbing Los Angeles Center
05:04PM 34.7528 -118.8375 337° Northwest 407 468 20,200 1,920 Climbing Los Angeles Center
05:05PM 34.8656 -118.8714 346° North 427 491 21,800 1,560 Climbing Los Angeles Center
05:06PM 34.9861 -118.8911 352° North 426 490 23,500 1,560 Climbing Los Angeles Center
05:07PM 35.1064 -118.9100 353° North 436 502 25,100 1,440 Climbing Los Angeles Center
05:08PM 35.2297 -118.9297 353° North 444 511 26,600 1,380 Climbing Los Angeles Center
05:09PM 35.3578 -118.9486 353° North 456 525 28,000 1,500 Climbing Los Angeles Center
05:10PM 35.5136 -118.9747 352° North 468 539 29,800 1,500 Climbing Los Angeles Center
05:11PM 35.6447 -118.9964 352° North 476 548 31,200 1,200 Climbing Los Angeles Center
05:12PM 35.7792 -119.0186 352° North 485 558 32,300 1,080 Climbing Los Angeles Center
05:13PM 35.8861 -119.0353 353° North 492 566 33,200 1,140 Climbing Oakland Center
05:14PM 36.0272 -119.0589 352° North 508 585 34,400 1,260 Climbing Oakland Center
05:15PM 36.1697 -119.0756 355° North 517 595 35,800 1,560 Climbing Oakland Center
05:16PM 36.3156 -119.0564 North 530 610 37,600 1,800 Climbing Oakland Center
05:17PM 36.4553 -119.0328 North 515 593 39,500 1,140 Climbing Oakland Center
05:18PM 36.5908 -119.0058 North 501 577 40,000 240 Climbing Oakland Center
05:19PM 36.7664 -118.9736 North 524 603 40,000  Level Oakland Center
05:20PM 36.9208 -118.9464 North 552 635 40,000  Level Oakland Center
05:21PM 37.0761 -118.9194 North 561 646 40,000  Level Oakland Center
05:22PM 37.2311 -118.8928 North 563 648 40,000 180 Level Oakland Center
05:23PM 37.3869 -118.8647 North 565 650 40,400 840 Climbing Oakland Center
05:24PM 37.5381 -118.8383 North 557 641 41,800 1,260 Climbing Oakland Center
05:25PM 37.7083 -118.8081 North 534 615 43,000 540 Climbing Oakland Center
05:26PM 37.8331 -118.7853 North 522 601 43,000  Level Oakland Center
05:27PM 37.9814 -118.7581 North 531 611 43,000  Level Oakland Center
05:28PM 38.1306 -118.7469 North 535 616 43,000  Level Oakland Center
05:29PM 38.3033 -118.7828 351° North 526 605 43,000  Level Oakland Center
05:30PM 38.4519 -118.8097 352° North 535 616 43,000  Level Oakland Center
05:31PM 38.6000 -118.8219 356° North 535 616 43,100  Climbing Oakland Center
05:32PM 38.7439 -118.8175 North 521 600 43,000 -60 Descending Oakland Center
05:33PM 38.8867 -118.7836 10° North 519 597 43,000  Level Oakland Center
05:34PM 39.0308 -118.7489 11° North 526 605 43,000  Level Oakland Center
05:35PM 39.1744 -118.7158 10° North 525 604 43,000  Level Oakland Center
05:36PM 39.3231 -118.6794 11° North 527 606 43,000  Level Oakland Center
05:37PM 39.4850 -118.6403 11° North 536 617 43,000  Level Oakland Center
05:38PM 39.6278 -118.6083 10° North 529 609 43,000  Level Oakland Center
05:39PM 39.7708 -118.5742 10° North 525 604 43,000  Level Oakland Center
05:40PM 39.9161 -118.5383 11° North 529 609 43,000  Level Oakland Center
05:41PM 40.0614 -118.5056 10° North 529 609 43,000  Level Oakland Center
05:42PM 40.2364 -118.4606 11° North 534 615 43,000  Level Oakland Center
05:43PM 40.3839 -118.4272 10° North 537 618 43,000  Level Oakland Center
05:44PM 40.5300 -118.3914 11° North 535 616 43,000  Level Oakland Center
05:45PM 40.6761 -118.3550 11° North 534 615 43,000  Level Oakland Center
05:46PM 40.8356 -118.3153 11° North 534 615 43,000  Level Oakland Center
05:48PM 40.9764 -118.2811 10° North 535 616 43,000  Level Oakland Center
05:49PM 41.1181 -118.2458 11° North 537 618 43,000  Level Oakland Center
05:50PM 41.2822 -118.2042 11° North 535 616 43,000  Level Oakland Center
05:51PM 41.4233 -118.1667 11° North 538 619 43,000  Level Oakland Center
05:52PM 41.5872 -118.0472 29° Northeast 524 603 43,000  Level Salt Lake Center
05:53PM 41.7239 -117.9211 35° Northeast 529 609 43,000  Level Salt Lake Center
05:54PM 41.8411 -117.8142 34° Northeast 531 611 43,000  Level Salt Lake Center
05:55PM 41.9594 -117.7017 35° Northeast 538 619 43,000  Level Salt Lake Center
05:56PM 42.0958 -117.5747 35° Northeast 533 613 43,000  Level Salt Lake Center
05:57PM 42.2117 -117.4678 34° Northeast 528 608 43,000  Level Salt Lake Center
05:58PM 42.3469 -117.3419 34° Northeast 532 612 43,000  Level Salt Lake Center
05:59PM 42.4853 -117.2128 35° Northeast 536 617 43,000  Level Salt Lake Center
06:00PM 42.6039 -117.1017 35° Northeast 537 618 43,000  Level Salt Lake Center
06:01PM 42.7319 -116.9806 35° Northeast 536 617 43,000  Level Salt Lake Center
06:02PM 42.8606 -116.8589 35° Northeast 539 620 43,000  Level Salt Lake Center
06:03PM 42.9881 -116.7367 35° Northeast 536 617 43,000  Level Salt Lake Center
06:04PM 43.1169 -116.6144 35° Northeast 539 620 43,000  Level Salt Lake Center
06:05PM 43.2458 -116.4906 35° Northeast 540 621 43,000  Level Salt Lake Center
06:06PM 43.3653 -116.3747 35° Northeast 541 623 43,000  Level Salt Lake Center
06:07PM 43.4950 -116.2492 35° Northeast 541 623 43,000  Level Salt Lake Center
06:09PM 43.6028 -116.1091 45° Northeast  Level FlightAware Approximate
06:09PM 43.7236 -115.9564 45° Northeast 537 618 43,000  Level Salt Lake Center
06:11PM 43.8336 -115.8033 45° Northeast 540 621 43,000  Level Salt Lake Center
06:12PM 43.9257 -115.6674 47° Northeast  Level FlightAware Approximate
06:12PM 43.9339 -115.6608 47° Northeast 538 619 43,000  Level Salt Lake Center
06:13PM 44.0436 -115.5064 45° Northeast 534 615 43,000  Level Salt Lake Center
06:14PM 44.1525 -115.3517 46° Northeast 538 619 43,000  Level Salt Lake Center
06:15PM 44.2611 -115.1961 46° Northeast 538 619 43,000  Level Salt Lake Center
06:16PM 44.3603 -115.0522 46° Northeast 537 618 43,000  Level Salt Lake Center
06:18PM 44.5747 -114.7414 46° Northeast 533 613 43,000 -120 Level Salt Lake Center
06:19PM 44.6914 -114.5725 46° Northeast 539 620 42,700 -1,500 Descending Salt Lake Center
06:20PM 44.7903 -114.4256 46° Northeast 540 621 40,000 -2,820 Descending Salt Lake Center
06:21PM 44.9019 -114.2619 46° Northeast 522 601 36,900 -2,760 Descending Salt Lake Center
06:22PM 44.9975 -114.1206 46° Northeast 520 598 34,300 -2,520 Descending Salt Lake Center
06:23PM 45.1033 -113.9967 40° Northeast 516 594 31,700 -2,760 Descending Salt Lake Center
06:24PM 45.2319 -113.8592 37° Northeast 516 594 28,600 -2,880 Descending Salt Lake Center
06:25PM 45.3478 -113.7389 36° Northeast 524 603 25,800 -2,700 Descending Salt Lake Center
06:26PM 45.4617 -113.6203 36° Northeast 510 587 23,100 -2,520 Descending Salt Lake Center
06:27PM 45.5661 -113.5067 37° Northeast 478 550 20,700 -2,340 Descending Salt Lake Center
06:28PM 45.6644 -113.4011 37° Northeast 452 520 18,300 -2,520 Descending Salt Lake Center
06:29PM 45.7794 -113.2747 37° Northeast 436 502 15,500 -2,520 Descending Salt Lake Center
06:30PM 45.8736 -113.1733 37° Northeast 428 493 13,200 -1,260 Descending Salt Lake Center
06:31PM 45.9553 -113.0858 37° Northeast 398 458 13,000 -120 Descending Salt Lake Center
06:32PM 46.0131 -113.0200 38° Northeast 317 365 13,000  Level Salt Lake Center
06:33PM 46.0578 -112.9561 45° Northeast 267 307 13,000 -240 Level Salt Lake Center
06:34PM 46.0961 -112.8828 53° Northeast 244 281 12,600 -420 Descending Salt Lake Center